Decoded Metar for LYVR (VRSAC in SERBIA) (IATA:N/A) | Meteo·Mobile Aviation Weather
aviador You're here:

LYVR Decoded Metar

VRSAC in SERBIA
Report Time2019-07-16 09:30:00
UTC Time2019-07-16 10:02:47
Flight Rules vfr VFR
WindVRB at 06 kt
Visibility9999 m
Phenomena:N/A
Clouds:Few 033 Hf
Expected CloudBase > 6,000 ft AGL from Temp-Dew spread
CeilingNone
Temp25°C (ISA +11)
Dew Point10°C (39% RH)
AAT22.9°C
QNH1012 hPa
Density Alt1,703 ft
Elevation279 ft
Report Wrong Elevation
Raw Report
METAR LYVR 160930Z VRB06KT 9999 FEW033 25/10 Q1012 NOSIG=

Extra information for LYVR:More info

Metar Taf Metar & Taf Last 4 Metars F.Rules Stats Wind Profile Meteogram Temp Stats Airport Information Weather charts Add Link Nearby VenuesMetar ALERT Operation Metar Decoded Social comments